Time;durP1;ratioP1;P1;durP2;ratioP2;P2;SDS_P1;SDS_P2;PMS_P1;PMS_P2;Temp;Humidity;BMP_temperature;BMP_pressure;BME280_temperature;BME280_humidity;BME280_pressure;Samples;Min_cycle;Max_cycle;Signal;HPM_P1;HPM_P2
2023/03/11 00:01:23;;;;;;;13.20;1.92;;;;;;;14.64;50.83;95229.47;4996722;28;20054;-26
2023/03/11 00:03:49;;;;;;;15.80;3.35;;;;;;;14.50;51.41;95240.47;5007089;28;20038;-26
2023/03/11 00:06:15;;;;;;;12.77;1.65;;;;;;;14.34;52.21;95239.03;5003238;28;20105;-26
2023/03/11 00:08:40;;;;;;;9.38;1.65;;;;;;;14.56;51.20;95241.28;5005440;28;20037;-26
2023/03/11 00:11:06;;;;;;;14.82;2.45;;;;;;;14.31;51.92;95235.28;4997908;28;20025;-26
2023/03/11 00:13:32;;;;;;;8.38;1.58;;;;;;;14.39;51.74;95221.97;5006165;28;20026;-27
2023/03/11 00:15:59;;;;;;;8.63;1.73;;;;;;;14.54;50.78;95251.94;4998609;28;20053;-26
2023/03/11 00:18:26;;;;;;;12.77;1.67;;;;;;;14.53;51.43;95240.25;4997669;28;20146;-26
2023/03/11 00:20:54;;;;;;;9.55;1.92;;;;;;;14.41;51.47;95238.66;4997807;28;20022;-26
2023/03/11 00:23:19;;;;;;;8.02;1.67;;;;;;;14.46;51.47;95235.25;5000497;28;20104;-26
2023/03/11 00:25:46;;;;;;;16.00;3.85;;;;;;;14.44;51.97;95236.94;5001159;28;20552;-26
2023/03/11 00:28:14;;;;;;;7.68;1.52;;;;;;;14.42;52.01;95251.06;4998326;28;20030;-27
2023/03/11 00:30:41;;;;;;;7.88;1.63;;;;;;;14.63;51.95;95249.78;4997673;28;20025;-26
2023/03/11 00:33:07;;;;;;;15.60;2.85;;;;;;;14.78;51.38;95262.59;4998015;28;20026;-26
2023/03/11 00:35:34;;;;;;;9.20;1.77;;;;;;;14.49;52.30;95272.44;5004014;28;20030;-26
2023/03/11 00:38:02;;;;;;;7.32;1.92;;;;;;;14.62;51.86;95281.03;5003976;28;20022;-26
2023/03/11 00:40:31;;;;;;;11.27;2.28;;;;;;;14.60;52.01;95271.81;5004352;28;20022;-26
2023/03/11 00:42:57;;;;;;;7.75;2.55;;;;;;;14.60;51.97;95250.00;4997490;28;20113;-26
2023/03/11 00:45:24;;;;;;;11.40;2.03;;;;;;;14.70;51.52;95252.09;5005265;28;20089;-26
2023/03/11 00:47:51;;;;;;;9.63;2.40;;;;;;;14.74;51.93;95249.13;4997152;28;20022;-26
2023/03/11 00:50:19;;;;;;;8.65;1.80;;;;;;;14.73;51.33;95269.47;5003836;28;20029;-26
2023/03/11 00:52:46;;;;;;;10.70;2.20;;;;;;;14.60;51.59;95267.09;4999481;28;20017;-27
2023/03/11 00:55:15;;;;;;;12.15;1.98;;;;;;;14.65;52.01;95262.94;5000949;28;20062;-27
2023/03/11 00:57:42;;;;;;;11.25;1.83;;;;;;;14.53;52.17;95251.16;5003785;28;20466;-26
2023/03/11 01:00:12;;;;;;;11.70;2.35;;;;;;;14.77;51.23;95248.19;4996920;28;20026;-26
2023/03/11 01:02:37;;;;;;;12.48;2.17;;;;;;;14.82;51.32;95254.94;5000482;28;20042;-26
2023/03/11 01:05:04;;;;;;;14.43;1.75;;;;;;;14.89;51.35;95251.75;5001376;28;20384;-26
2023/03/11 01:07:32;;;;;;;9.05;1.73;;;;;;;14.82;51.37;95244.03;5003107;28;20426;-26
2023/03/11 01:09:57;;;;;;;11.70;2.22;;;;;;;14.77;51.78;95239.25;5010417;28;20088;-27
2023/03/11 01:12:23;;;;;;;12.18;2.13;;;;;;;14.87;51.21;95232.38;5001925;28;20420;-27
2023/03/11 01:14:48;;;;;;;9.60;1.60;;;;;;;14.73;51.66;95232.00;4998844;28;20453;-27
2023/03/11 01:17:13;;;;;;;10.57;2.25;;;;;;;14.72;51.67;95233.25;4996740;28;20427;-26
2023/03/11 01:19:39;;;;;;;12.82;2.40;;;;;;;14.80;51.33;95225.41;4995292;28;20092;-27
2023/03/11 01:22:06;;;;;;;9.43;2.05;;;;;;;14.84;51.58;95236.81;5005789;28;20060;-27
2023/03/11 01:24:31;;;;;;;12.60;2.03;;;;;;;14.88;51.53;95229.19;5001812;28;20378;-26
2023/03/11 01:26:56;;;;;;;8.90;1.52;;;;;;;14.95;51.31;95225.28;4996561;28;20026;-26
2023/03/11 01:29:22;;;;;;;9.10;1.25;;;;;;;14.74;51.87;95233.50;5003026;28;20462;-26
2023/03/11 01:31:47;;;;;;;9.43;1.90;;;;;;;14.90;51.41;95221.25;4996656;28;20030;-26
2023/03/11 01:34:13;;;;;;;11.80;1.58;;;;;;;14.80;52.20;95219.94;4996891;28;20026;-26
2023/03/11 01:36:39;;;;;;;7.72;2.03;;;;;;;14.87;52.52;95200.38;4996477;28;20015;-26
2023/03/11 01:39:05;;;;;;;9.30;2.15;;;;;;;14.86;51.63;95196.16;5003151;28;20040;-26
2023/03/11 01:41:30;;;;;;;8.75;1.55;;;;;;;14.93;51.88;95198.47;4998361;28;20017;-26
2023/03/11 01:43:56;;;;;;;8.10;2.05;;;;;;;14.88;51.74;95198.41;5006929;28;20032;-26
2023/03/11 01:46:25;;;;;;;18.83;1.95;;;;;;;15.03;51.34;95207.22;4998258;28;20490;-26
2023/03/11 01:49:02;;;;;;;14.93;1.55;;;;;;;14.72;52.60;95202.47;4995909;28;20470;-26
2023/03/11 01:51:34;;;;;;;11.82;2.20;;;;;;;14.70;52.50;95177.69;4996780;28;20026;-26
2023/03/11 01:54:05;;;;;;;12.77;1.95;;;;;;;15.02;51.66;95175.69;4996048;28;20433;-26
2023/03/11 01:56:32;;;;;;;9.25;1.60;;;;;;;14.87;51.96;95166.88;5003119;28;20057;-26
2023/03/11 01:58:57;;;;;;;13.27;2.00;;;;;;;14.86;51.77;95157.19;5002906;28;20422;-26
2023/03/11 02:01:23;;;;;;;8.82;2.15;;;;;;;14.94;51.67;95152.78;4995365;28;20042;-26
2023/03/11 02:03:49;;;;;;;10.00;1.90;;;;;;;14.62;52.46;95152.78;5003574;28;20132;-26
2023/03/11 02:06:20;;;;;;;12.38;1.90;;;;;;;14.48;52.79;95150.91;4996612;28;20072;-26
2023/03/11 02:08:47;;;;;;;8.63;1.75;;;;;;;14.57;53.13;95158.97;4996447;28;20058;-27
2023/03/11 02:11:18;;;;;;;12.10;2.22;;;;;;;14.65;52.40;95151.81;4999377;28;20056;-26
2023/03/11 02:13:45;;;;;;;9.50;1.90;;;;;;;14.70;52.78;95161.31;4997735;28;20398;-26
2023/03/11 02:16:12;;;;;;;12.45;1.92;;;;;;;14.89;52.36;95167.16;5002569;28;20022;-26
2023/03/11 02:18:38;;;;;;;8.32;2.08;;;;;;;14.86;52.06;95159.91;4995629;28;20105;-26
2023/03/11 02:21:23;;;;;;;12.32;2.30;;;;;;;14.84;52.72;95154.94;5003740;28;20440;-26
2023/03/11 02:24:11;;;;;;;13.35;2.88;;;;;;;14.66;52.61;95136.94;4995469;28;20505;-26
2023/03/11 02:26:42;;;;;;;10.93;1.60;;;;;;;14.58;53.14;95144.09;4993541;28;20446;-26
2023/03/11 02:29:10;;;;;;;10.82;2.05;;;;;;;14.64;52.98;95125.03;5002654;28;20073;-26
2023/03/11 02:31:37;;;;;;;10.15;1.80;;;;;;;14.58;52.92;95116.81;5002071;28;20115;-27
2023/03/11 02:34:07;;;;;;;11.55;2.40;;;;;;;14.60;52.77;95111.59;4996116;28;20026;-26
2023/03/11 02:36:37;;;;;;;10.25;1.95;;;;;;;14.67;53.00;95115.88;4995320;28;20258;-27
2023/03/11 02:39:04;;;;;;;10.68;2.17;;;;;;;14.66;52.66;95122.56;4995323;28;20022;-26
2023/03/11 02:41:30;;;;;;;12.40;2.13;;;;;;;14.63;52.69;95137.16;5002678;28;20028;-26
2023/03/11 02:43:56;;;;;;;12.45;1.95;;;;;;;14.56;53.01;95126.69;4994632;28;20471;-26
2023/03/11 02:46:22;;;;;;;10.65;2.03;;;;;;;14.54;53.04;95132.63;4996214;28;20125;-26
2023/03/11 02:48:48;;;;;;;8.50;1.50;;;;;;;14.34;53.45;95124.50;5001519;28;20529;-26
2023/03/11 02:51:14;;;;;;;12.40;2.30;;;;;;;14.37;53.24;95123.50;4993896;28;20379;-26
2023/03/11 02:53:46;;;;;;;11.93;1.85;;;;;;;14.45;53.45;95118.44;4995491;28;20032;-26
2023/03/11 02:56:11;;;;;;;12.02;1.77;;;;;;;14.66;52.71;95125.28;4995452;28;20022;-26
2023/03/11 02:58:37;;;;;;;14.00;1.95;;;;;;;14.66;52.66;95111.66;4995703;28;20014;-26
2023/03/11 03:01:03;;;;;;;14.60;2.00;;;;;;;14.32;53.10;95103.16;5001585;28;20026;-27
2023/03/11 03:03:28;;;;;;;10.27;1.90;;;;;;;14.64;52.33;95098.47;5008671;28;20485;-26
2023/03/11 03:05:54;;;;;;;12.52;2.00;;;;;;;14.50;53.00;95096.63;4995720;28;20458;-26
2023/03/11 03:08:21;;;;;;;13.82;2.35;;;;;;;14.58;52.49;95091.50;4995032;28;20475;-26
2023/03/11 03:10:46;;;;;;;13.40;1.98;;;;;;;14.51;52.51;95086.47;4995732;28;20052;-26
2023/03/11 03:13:12;;;;;;;12.45;2.40;;;;;;;14.40;52.77;95076.22;4994937;28;20403;-26
2023/03/11 03:15:37;;;;;;;15.30;1.90;;;;;;;14.46;52.81;95059.91;4998843;28;20027;-26
2023/03/11 03:18:03;;;;;;;9.23;2.22;;;;;;;14.32;52.67;95039.69;5006386;28;20036;-26
2023/03/11 03:20:28;;;;;;;13.90;2.25;;;;;;;14.44;52.88;95035.84;5010721;28;20018;-27
2023/03/11 03:22:54;;;;;;;12.45;2.10;;;;;;;14.41;53.04;95042.25;5001537;28;20433;-26
2023/03/11 03:25:20;;;;;;;11.65;1.75;;;;;;;14.54;52.43;95034.41;4998776;28;20375;-27
2023/03/11 03:27:45;;;;;;;12.40;2.17;;;;;;;14.17;53.63;95039.06;4998700;28;20030;-26
2023/03/11 03:30:11;;;;;;;11.02;2.17;;;;;;;14.33;53.61;95035.72;4999444;28;20056;-26
2023/03/11 03:32:36;;;;;;;10.13;2.22;;;;;;;14.34;53.36;95048.13;5002714;28;20022;-27
2023/03/11 03:35:03;;;;;;;11.70;1.65;;;;;;;14.21;53.26;95042.31;5001054;28;20027;-26
2023/03/11 03:37:33;;;;;;;9.73;2.80;;;;;;;14.51;52.55;95057.22;5005708;28;20419;-26
2023/03/11 03:39:58;;;;;;;8.90;1.90;;;;;;;14.40;52.83;95068.03;4998664;28;20026;-27
2023/03/11 03:42:24;;;;;;;9.73;2.50;;;;;;;14.20;53.64;95081.72;4999341;28;20044;-26
2023/03/11 03:44:51;;;;;;;11.10;1.40;;;;;;;14.21;53.64;95086.72;5005760;28;20022;-26
2023/03/11 03:47:18;;;;;;;10.88;1.85;;;;;;;14.49;52.68;95086.94;4999330;28;20049;-26
2023/03/11 03:49:43;;;;;;;7.72;1.65;;;;;;;14.46;52.94;95087.94;5005244;28;20042;-26
2023/03/11 03:52:10;;;;;;;11.00;1.95;;;;;;;14.33;53.39;95084.81;5004068;28;20022;-26
2023/03/11 03:54:36;;;;;;;11.27;2.20;;;;;;;14.57;52.40;95093.47;4999440;28;20026;-26
2023/03/11 03:57:03;;;;;;;10.02;2.00;;;;;;;14.55;52.35;95078.81;4998029;28;20026;-26
2023/03/11 03:59:28;;;;;;;12.05;1.80;;;;;;;14.29;52.61;95084.28;4998797;28;20073;-26
2023/03/11 04:01:54;;;;;;;10.20;2.47;;;;;;;14.32;52.64;95084.06;5000971;28;20501;-27
2023/03/11 04:04:19;;;;;;;7.15;1.52;;;;;;;14.36;52.63;95076.41;5002332;28;20026;-26
2023/03/11 04:06:45;;;;;;;9.57;1.73;;;;;;;14.22;52.66;95084.69;5005506;28;20037;-26
2023/03/11 04:09:11;;;;;;;10.68;1.30;;;;;;;14.47;51.85;95089.41;5004182;28;20019;-26
2023/03/11 04:11:39;;;;;;;9.60;2.17;;;;;;;14.20;52.69;95089.91;4997996;28;20054;-26
2023/03/11 04:14:05;;;;;;;13.25;2.20;;;;;;;14.47;52.42;95088.66;5005171;28;20023;-26
2023/03/11 04:16:31;;;;;;;8.27;1.80;;;;;;;14.25;52.71;95089.19;4997750;28;20030;-26
2023/03/11 04:18:56;;;;;;;11.57;1.77;;;;;;;14.41;52.60;95082.44;4998606;28;20026;-26
2023/03/11 04:21:22;;;;;;;10.60;1.52;;;;;;;14.27;52.70;95090.22;5008548;28;20081;-26
2023/03/11 04:23:48;;;;;;;16.15;2.53;;;;;;;14.48;51.95;95095.63;5000336;28;20494;-26
2023/03/11 04:26:14;;;;;;;8.20;2.08;;;;;;;14.40;52.03;95089.84;5011433;28;20030;-26
2023/03/11 04:28:39;;;;;;;12.52;2.63;;;;;;;14.37;52.25;95096.25;4997584;28;20035;-26
2023/03/11 04:31:05;;;;;;;17.05;2.83;;;;;;;14.21;52.50;95097.63;4998256;28;20033;-26
2023/03/11 04:33:31;;;;;;;13.02;2.33;;;;;;;14.33;52.39;95110.13;4996129;28;20053;-26
2023/03/11 04:35:56;;;;;;;17.20;2.92;;;;;;;14.34;52.37;95113.59;4997603;28;20027;-26
2023/03/11 04:38:22;;;;;;;14.77;2.03;;;;;;;14.46;51.77;95114.47;5004797;28;20025;-26
2023/03/11 04:40:48;;;;;;;18.95;2.97;;;;;;;14.50;51.80;95121.19;5001604;28;20025;-26
2023/03/11 04:43:13;;;;;;;9.73;2.13;;;;;;;14.32;52.36;95097.72;4999503;28;20149;-27
2023/03/11 04:45:39;;;;;;;12.55;2.05;;;;;;;14.65;51.93;95089.06;5004244;28;20027;-26
2023/03/11 04:48:05;;;;;;;10.60;2.17;;;;;;;14.72;51.40;95096.78;4997338;28;20397;-26
2023/03/11 04:50:31;;;;;;;11.25;2.63;;;;;;;14.66;51.85;95090.56;4998166;28;20049;-26
2023/03/11 04:52:56;;;;;;;10.38;2.28;;;;;;;14.54;52.29;95097.16;5002937;28;20100;-26
2023/03/11 04:55:22;;;;;;;9.75;1.70;;;;;;;14.60;52.10;95105.38;5003985;28;20054;-26
2023/03/11 04:57:47;;;;;;;8.90;2.30;;;;;;;14.44;52.38;95106.00;4997445;28;20022;-26
2023/03/11 05:00:14;;;;;;;10.95;2.30;;;;;;;14.46;52.46;95087.19;4997044;28;20030;-26
2023/03/11 05:02:41;;;;;;;11.15;1.90;;;;;;;14.52;52.36;95096.16;5005077;28;20140;-26
2023/03/11 05:05:08;;;;;;;18.58;2.17;;;;;;;14.63;52.33;95096.22;5001348;28;20025;-26
2023/03/11 05:07:34;;;;;;;12.68;2.10;;;;;;;14.68;51.75;95098.28;5006543;28;20026;-26
2023/03/11 05:09:59;;;;;;;8.32;1.92;;;;;;;14.49;51.86;95113.47;4999096;28;20041;-26
2023/03/11 05:12:25;;;;;;;12.65;2.47;;;;;;;14.49;52.32;95094.38;5001151;28;20022;-26
2023/03/11 05:14:50;;;;;;;10.18;1.92;;;;;;;14.71;51.79;95092.56;4995950;28;20027;-26
2023/03/11 05:17:18;;;;;;;10.70;1.48;;;;;;;14.50;52.09;95099.34;4996999;28;20014;-26
2023/03/11 05:19:45;;;;;;;8.73;1.85;;;;;;;14.55;51.84;95106.09;4996414;28;20034;-26
2023/03/11 05:22:10;;;;;;;8.75;1.77;;;;;;;14.68;51.73;95109.19;5003854;28;20029;-26
2023/03/11 05:24:36;;;;;;;13.00;2.00;;;;;;;14.45;51.86;95097.34;5003152;28;20451;-26
2023/03/11 05:27:03;;;;;;;5.95;2.00;;;;;;;14.61;51.81;95106.88;5010564;28;20026;-26
2023/03/11 05:29:29;;;;;;;12.82;1.88;;;;;;;14.55;52.58;95101.41;4996750;28;20471;-26
2023/03/11 05:31:54;;;;;;;14.80;1.95;;;;;;;14.54;52.08;95093.69;4996340;28;20054;-26
2023/03/11 05:34:20;;;;;;;11.60;1.80;;;;;;;14.71;52.07;95094.56;4997118;28;20076;-26
2023/03/11 05:36:45;;;;;;;16.95;2.53;;;;;;;14.42;53.24;95108.47;4995351;28;20034;-26
2023/03/11 05:39:11;;;;;;;11.65;2.45;;;;;;;14.70;51.69;95118.38;4996393;28;20455;-27
2023/03/11 05:41:37;;;;;;;12.23;2.15;;;;;;;14.81;52.10;95127.88;5003256;28;20022;-26
2023/03/11 05:44:03;;;;;;;13.85;2.13;;;;;;;14.56;52.33;95123.97;5009862;28;20041;-26
2023/03/11 05:46:29;;;;;;;11.60;1.50;;;;;;;14.45;52.89;95105.53;4997294;28;20053;-26
2023/03/11 05:48:54;;;;;;;10.32;2.08;;;;;;;14.68;52.43;95111.91;4996118;28;20454;-27
2023/03/11 05:51:20;;;;;;;10.30;2.60;;;;;;;14.64;52.54;95123.03;4996824;28;20049;-26
2023/03/11 05:53:47;;;;;;;11.90;2.30;;;;;;;14.56;52.44;95130.19;4995949;28;20045;-26
2023/03/11 05:56:17;;;;;;;13.50;2.53;;;;;;;14.70;52.20;95150.38;5001733;28;20470;-26
2023/03/11 05:58:42;;;;;;;13.55;2.00;;;;;;;14.53;52.46;95163.88;4997048;28;20091;-26
2023/03/11 06:01:10;;;;;;;14.30;2.33;;;;;;;14.43;53.25;95159.81;5000819;28;20466;-26
2023/03/11 06:03:36;;;;;;;11.63;2.33;;;;;;;14.74;51.86;95157.09;5009560;28;20028;-26
2023/03/11 06:06:01;;;;;;;14.13;3.55;;;;;;;14.63;52.45;95146.09;4995789;28;20057;-27
2023/03/11 06:08:27;;;;;;;8.50;1.65;;;;;;;14.45;53.62;95151.91;4995567;28;20058;-26
2023/03/11 06:11:00;;;;;;;11.55;2.22;;;;;;;14.77;52.74;95146.47;4996538;28;20100;-26
2023/03/11 06:13:25;;;;;;;16.77;1.67;;;;;;;14.79;53.00;95141.25;5001544;28;20429;-26
2023/03/11 06:15:51;;;;;;;13.57;2.03;;;;;;;14.54;54.07;95143.53;5002999;28;20029;-26
2023/03/11 06:18:16;;;;;;;16.42;2.25;;;;;;;14.60;54.23;95138.88;4995668;28;20022;-26
2023/03/11 06:20:42;;;;;;;14.43;2.60;;;;;;;14.87;53.02;95150.50;4995667;28;20021;-26
2023/03/11 06:23:08;;;;;;;8.40;1.38;;;;;;;14.80;53.54;95154.44;4996356;28;20386;-26
2023/03/11 06:25:33;;;;;;;11.50;1.65;;;;;;;14.47;54.63;95143.97;5000838;28;20057;-27
2023/03/11 06:27:59;;;;;;;15.60;2.75;;;;;;;14.68;54.13;95144.66;4997604;28;20549;-26
2023/03/11 06:30:25;;;;;;;13.55;2.55;;;;;;;14.72;54.17;95151.38;5002300;28;20450;-26
2023/03/11 06:32:51;;;;;;;9.45;2.13;;;;;;;14.71;54.25;95141.69;5002022;28;20501;-27
2023/03/11 06:35:16;;;;;;;15.32;2.70;;;;;;;14.71;54.29;95133.50;4996020;28;20037;-26
2023/03/11 06:37:42;;;;;;;12.70;2.67;;;;;;;14.45;55.07;95145.69;4995507;28;20018;-26
2023/03/11 06:40:09;;;;;;;11.75;2.20;;;;;;;14.59;54.36;95129.19;4995949;28;20093;-26
2023/03/11 06:42:35;;;;;;;9.93;2.78;;;;;;;14.64;54.23;95122.28;4995240;28;20038;-26
2023/03/11 06:45:00;;;;;;;13.50;1.92;;;;;;;14.62;54.66;95128.22;5008116;28;20057;-26
2023/03/11 06:47:26;;;;;;;16.65;2.17;;;;;;;14.56;55.11;95115.78;4996958;28;20022;-27
2023/03/11 06:49:51;;;;;;;7.60;1.33;;;;;;;14.61;55.36;95099.44;5000875;28;20058;-26
2023/03/11 06:52:17;;;;;;;11.65;1.85;;;;;;;14.60;55.05;95097.19;4995408;28;20022;-26
2023/03/11 06:54:43;;;;;;;12.95;2.63;;;;;;;14.62;54.88;95102.91;5002738;28;20505;-26
2023/03/11 06:57:10;;;;;;;8.05;1.90;;;;;;;14.77;54.80;95110.97;4995301;28;20080;-26
2023/03/11 06:59:36;;;;;;;12.52;2.65;;;;;;;14.93;54.12;95102.16;4994612;28;20026;-26
2023/03/11 07:02:04;;;;;;;11.10;2.50;;;;;;;14.78;54.78;95102.31;5001426;28;20049;-26
2023/03/11 07:04:30;;;;;;;8.95;2.80;;;;;;;14.67;55.63;95102.22;5001748;28;20068;-26
2023/03/11 07:06:56;;;;;;;18.15;3.25;;;;;;;14.82;54.05;95102.84;5006737;28;20027;-26
2023/03/11 07:09:24;;;;;;;10.27;1.98;;;;;;;14.76;54.51;95112.22;4995257;28;20026;-26
2023/03/11 07:11:52;;;;;;;9.23;1.83;;;;;;;14.78;54.26;95112.47;4995799;28;20088;-27
2023/03/11 07:14:17;;;;;;;8.35;2.55;;;;;;;14.79;54.20;95120.19;4998997;28;20033;-26
2023/03/11 07:16:44;;;;;;;17.63;4.30;;;;;;;14.95;53.82;95105.91;4997216;28;20390;-26
2023/03/11 07:19:10;;;;;;;9.75;3.67;;;;;;;14.87;53.85;95115.00;5002152;28;20026;-26
2023/03/11 07:21:37;;;;;;;10.43;4.53;;;;;;;14.63;54.48;95132.44;5001610;28;20046;-26
2023/03/11 07:24:03;;;;;;;15.30;3.63;;;;;;;14.74;54.24;95124.34;4995806;28;20026;-26
2023/03/11 07:26:30;;;;;;;14.20;3.83;;;;;;;14.59;54.72;95118.28;5002111;28;20478;-26
2023/03/11 07:28:56;;;;;;;10.57;4.63;;;;;;;14.56;54.87;95121.25;4995111;28;20536;-26
2023/03/11 07:31:28;;;;;;;17.98;2.90;;;;;;;14.48;55.93;95120.91;5001832;28;20363;-26
2023/03/11 07:33:55;;;;;;;13.88;3.17;;;;;;;14.57;55.71;95120.00;5001061;28;20421;-26
2023/03/11 07:36:23;;;;;;;16.73;3.20;;;;;;;14.75;55.67;95130.56;4995684;28;20377;-26
2023/03/11 07:38:54;;;;;;;9.70;2.28;;;;;;;14.89;55.51;95113.31;5002008;28;20029;-27
2023/03/11 07:41:19;;;;;;;16.83;7.18;;;;;;;14.77;55.85;95108.25;4995450;28;20033;-27
2023/03/11 07:43:44;;;;;;;16.33;3.65;;;;;;;14.95;55.68;95099.69;4999177;28;20130;-26
2023/03/11 07:46:15;;;;;;;13.65;2.95;;;;;;;14.95;55.65;95094.25;4997419;28;20039;-26
2023/03/11 07:48:41;;;;;;;16.23;4.28;;;;;;;14.95;55.90;95088.78;4994735;28;20533;-26
2023/03/11 07:51:11;;;;;;;10.43;2.30;;;;;;;14.97;56.03;95091.75;5001342;28;20109;-27
2023/03/11 07:53:36;;;;;;;13.15;3.45;;;;;;;14.89;56.52;95085.25;4995278;28;20375;-26
2023/03/11 07:56:03;;;;;;;7.75;2.83;;;;;;;15.00;56.07;95090.78;4994685;28;20026;-27
2023/03/11 07:58:28;;;;;;;6.80;2.42;;;;;;;14.98;56.29;95087.78;4995045;28;20019;-26
2023/03/11 08:00:55;;;;;;;12.60;3.28;;;;;;;14.99;56.39;95106.41;4997003;28;20022;-26
2023/03/11 08:03:23;;;;;;;9.88;3.25;;;;;;;15.03;56.21;95114.38;5011334;28;20022;-26
2023/03/11 08:05:49;;;;;;;15.00;3.38;;;;;;;15.10;56.26;95097.53;5000155;28;20083;-26
2023/03/11 08:08:14;;;;;;;16.25;3.40;;;;;;;14.87;56.71;95102.13;5007958;28;20030;-26
2023/03/11 08:10:40;;;;;;;8.52;3.05;;;;;;;15.10;56.26;95094.81;4998447;28;20153;-26
2023/03/11 08:13:05;;;;;;;11.55;3.28;;;;;;;14.87;56.81;95104.09;4997977;28;20014;-26
2023/03/11 08:15:31;;;;;;;13.38;3.13;;;;;;;14.98;56.25;95112.34;4998081;28;20112;-26
2023/03/11 08:17:56;;;;;;;12.30;2.80;;;;;;;14.99;56.45;95119.31;4997182;28;20018;-26
2023/03/11 08:20:21;;;;;;;7.45;2.35;;;;;;;14.95;56.52;95118.81;5004422;28;20022;-26
2023/03/11 08:22:47;;;;;;;12.43;3.03;;;;;;;14.79;56.74;95124.88;5004374;28;20112;-26
2023/03/11 08:25:12;;;;;;;13.68;2.90;;;;;;;14.86;56.65;95125.19;5007484;28;20017;-26
2023/03/11 08:27:39;;;;;;;11.57;2.55;;;;;;;14.99;56.13;95114.59;5002292;28;20033;-26
2023/03/11 08:30:05;;;;;;;8.70;2.22;;;;;;;14.88;56.28;95121.97;4998208;28;20389;-26
2023/03/11 08:32:32;;;;;;;9.52;2.17;;;;;;;14.90;56.06;95131.19;4997760;28;20034;-27
2023/03/11 08:34:57;;;;;;;9.25;1.88;;;;;;;15.13;55.56;95118.41;4997360;28;20529;-26
2023/03/11 08:37:23;;;;;;;8.25;2.00;;;;;;;14.98;56.30;95118.56;4998216;28;20038;-26
2023/03/11 08:39:48;;;;;;;17.73;3.97;;;;;;;15.04;56.04;95132.25;5004093;28;20466;-26
2023/03/11 08:42:16;;;;;;;10.63;2.90;;;;;;;15.13;55.73;95118.41;4998173;28;20423;-26
2023/03/11 08:44:41;;;;;;;7.90;1.90;;;;;;;15.03;56.10;95101.47;5004586;28;20391;-26
2023/03/11 08:47:07;;;;;;;13.43;2.35;;;;;;;15.00;56.47;95090.78;4997322;28;20026;-27
2023/03/11 08:49:33;;;;;;;10.20;2.30;;;;;;;14.97;56.37;95102.66;4997842;28;20026;-27
2023/03/11 08:52:00;;;;;;;9.75;2.20;;;;;;;14.93;56.45;95102.91;5001587;28;20409;-27
2023/03/11 08:54:25;;;;;;;14.82;2.30;;;;;;;14.85;56.54;95084.72;4999126;28;20030;-26
2023/03/11 08:56:50;;;;;;;7.53;2.13;;;;;;;14.98;56.35;95093.25;5004082;28;20022;-26
2023/03/11 08:59:16;;;;;;;22.20;3.25;;;;;;;14.83;56.85;95084.47;4996933;28;20018;-26
2023/03/11 09:01:41;;;;;;;9.85;1.48;;;;;;;14.63;57.32;95085.31;4998894;28;20042;-26
2023/03/11 09:04:07;;;;;;;9.95;1.50;;;;;;;14.85;56.86;95090.94;5002847;28;20041;-27
2023/03/11 09:06:32;;;;;;;10.48;2.10;;;;;;;14.73;57.26;95094.81;4997088;28;20463;-26
2023/03/11 09:08:58;;;;;;;9.73;1.90;;;;;;;14.94;56.47;95092.75;5013238;28;20030;-26
2023/03/11 09:11:24;;;;;;;8.80;1.60;;;;;;;14.93;56.58;95081.06;5006638;28;20113;-27
2023/03/11 09:13:49;;;;;;;10.32;1.92;;;;;;;14.88;56.66;95081.03;4998703;28;20026;-26
2023/03/11 09:16:18;;;;;;;10.32;2.03;;;;;;;14.80;56.98;95099.09;4996653;28;20018;-26
2023/03/11 09:18:44;;;;;;;11.10;2.80;;;;;;;14.79;57.11;95081.22;4996940;28;20026;-26
2023/03/11 09:21:10;;;;;;;7.95;2.03;;;;;;;14.81;57.65;95090.44;5003850;28;20021;-26
2023/03/11 09:23:35;;;;;;;10.60;2.30;;;;;;;14.84;57.81;95091.41;4996414;28;20390;-27
2023/03/11 09:26:01;;;;;;;17.08;2.97;;;;;;;14.72;58.36;95104.97;5010866;28;20040;-26
2023/03/11 09:28:26;;;;;;;11.05;2.63;;;;;;;14.82;58.13;95099.38;5002988;28;20026;-26
2023/03/11 09:30:55;;;;;;;11.35;2.20;;;;;;;14.83;58.35;95104.34;4996531;28;20039;-26
2023/03/11 09:33:20;;;;;;;10.15;2.30;;;;;;;14.90;58.08;95114.06;4997036;28;20470;-26
2023/03/11 09:35:46;;;;;;;12.93;2.45;;;;;;;14.68;58.76;95120.84;4996440;28;20032;-26
2023/03/11 09:38:11;;;;;;;10.55;2.40;;;;;;;14.79;58.63;95113.97;4995693;28;20050;-26
2023/03/11 09:40:55;;;;;;;9.90;2.75;;;;;;;14.79;58.27;95119.44;4999345;28;20018;-26
2023/03/11 09:43:39;;;;;;;11.88;2.30;;;;;;;14.58;59.21;95129.69;4997264;28;20030;-26
2023/03/11 09:46:25;;;;;;;13.90;2.33;;;;;;;14.81;58.63;95125.91;4996240;28;20109;-26
2023/03/11 09:49:27;;;;;;;8.95;2.10;;;;;;;15.04;57.98;95124.06;4996194;28;20023;-26
2023/03/11 09:51:59;;;;;;;14.52;2.58;;;;;;;14.68;59.46;95134.50;4989289;28;20034;-26
2023/03/11 09:54:27;;;;;;;9.63;2.15;;;;;;;14.95;58.62;95133.22;4997027;28;20409;-27
2023/03/11 09:56:54;;;;;;;9.85;1.98;;;;;;;14.92;58.59;95127.97;4999152;28;20073;-27
2023/03/11 09:59:30;;;;;;;20.70;3.08;;;;;;;14.97;58.50;95119.06;4999444;28;20050;-27
2023/03/11 10:01:55;;;;;;;8.43;2.42;;;;;;;14.85;58.74;95129.16;4995961;28;20486;-26
2023/03/11 10:04:29;;;;;;;10.13;2.92;;;;;;;14.69;59.25;95121.59;4996049;28;20033;-26
2023/03/11 10:06:55;;;;;;;12.05;2.42;;;;;;;14.90;58.96;95124.97;5005631;28;20033;-26
2023/03/11 10:09:35;;;;;;;10.55;2.20;;;;;;;15.04;58.70;95124.06;5002664;28;20097;-27
2023/03/11 10:12:15;;;;;;;11.35;2.78;;;;;;;15.01;58.92;95135.97;5008957;28;20030;-26
2023/03/11 10:15:05;;;;;;;8.38;2.47;;;;;;;14.98;59.10;95132.22;5002521;28;20018;-26
2023/03/11 10:17:58;;;;;;;14.00;3.70;;;;;;;15.03;59.30;95128.03;5002272;28;20029;-26
2023/03/11 10:21:07;;;;;;;9.63;2.80;;;;;;;14.80;59.61;95137.31;4995625;28;20537;-26
2023/03/11 10:23:35;;;;;;;8.75;3.15;;;;;;;14.79;59.61;95135.81;4954499;28;20207;-27
2023/03/11 10:26:22;;;;;;;11.45;3.22;;;;;;;14.85;59.45;95142.78;4962912;28;20069;-26
2023/03/11 10:29:01;;;;;;;11.52;2.88;;;;;;;14.84;59.55;95143.28;4958121;28;20102;-27
2023/03/11 10:31:29;;;;;;;10.93;3.42;;;;;;;14.57;60.56;95137.13;4961557;28;20498;-27
2023/03/11 10:34:27;;;;;;;10.73;3.50;;;;;;;14.69;59.91;95135.25;4961209;28;20122;-26
2023/03/11 10:37:02;;;;;;;11.75;3.22;;;;;;;14.70;60.40;95139.47;4950563;28;20398;-26
2023/03/11 10:39:31;;;;;;;7.70;3.00;;;;;;;14.85;60.03;95133.84;4961783;28;20549;-26
2023/03/11 10:42:01;;;;;;;17.00;3.70;;;;;;;14.82;60.13;95129.38;4952613;28;20039;-27
2023/03/11 10:44:38;;;;;;;9.27;3.22;;;;;;;14.47;61.33;95143.22;4969089;28;20102;-27
2023/03/11 10:47:05;;;;;;;11.02;3.40;;;;;;;14.69;60.77;95144.19;4961038;28;20055;-26
2023/03/11 10:49:31;;;;;;;13.13;3.97;;;;;;;14.67;60.59;95145.88;4954442;28;20039;-26
2023/03/11 10:51:57;;;;;;;13.73;4.10;;;;;;;14.63;60.90;95161.72;4954436;28;20024;-26
2023/03/11 10:54:25;;;;;;;13.07;4.25;;;;;;;14.87;60.54;95164.91;4978639;28;20148;-27
2023/03/11 10:57:01;;;;;;;13.93;4.35;;;;;;;14.87;60.35;95161.41;4995349;28;20105;-26
2023/03/11 10:59:31;;;;;;;10.65;3.88;;;;;;;14.85;60.65;95155.69;5002456;28;20018;-26
2023/03/11 11:02:27;;;;;;;9.40;3.10;;;;;;;14.79;61.02;95157.63;4997424;28;20050;-27
2023/03/11 11:05:25;;;;;;;8.50;3.00;;;;;;;14.69;61.41;95155.09;4991657;28;20037;-27
2023/03/11 11:08:03;;;;;;;7.95;2.80;;;;;;;14.84;61.27;95159.66;5003157;28;20084;-26
2023/03/11 11:10:30;;;;;;;10.70;3.60;;;;;;;14.84;61.29;95162.38;4995029;28;20077;-26
2023/03/11 11:12:58;;;;;;;10.77;3.60;;;;;;;14.73;61.68;95166.53;4995829;28;20076;-26
2023/03/11 11:15:34;;;;;;;15.68;4.55;;;;;;;14.73;61.59;95163.78;5006515;28;20367;-26
2023/03/11 11:18:06;;;;;;;10.60;3.15;;;;;;;14.96;60.97;95175.63;4997172;28;20026;-26
2023/03/11 11:20:53;;;;;;;16.67;4.30;;;;;;;15.02;61.28;95179.16;4999882;28;20093;-26
2023/03/11 11:23:30;;;;;;;13.90;3.70;;;;;;;14.69;62.04;95166.00;5001388;28;20030;-26
2023/03/11 11:25:58;;;;;;;13.32;3.65;;;;;;;14.76;62.35;95159.34;5003149;28;20026;-27
2023/03/11 11:28:24;;;;;;;13.30;3.38;;;;;;;14.70;62.56;95161.31;4997392;28;20029;-26
2023/03/11 11:31:02;;;;;;;12.40;3.70;;;;;;;14.97;61.60;95157.28;4998424;28;20034;-26